createdAt,value
2024-04-09T00:04:01.283Z,13.3
2024-04-09T00:09:02.548Z,13.2
2024-04-09T00:14:01.083Z,13.0
2024-04-09T00:19:01.240Z,11.4
2024-04-09T00:29:01.116Z,11.5
2024-04-09T00:34:01.426Z,12.0
2024-04-09T00:44:01.081Z,13.6
2024-04-09T00:49:01.163Z,13.8
2024-04-09T00:54:01.149Z,13.9
2024-04-09T00:59:01.080Z,13.6
2024-04-09T01:04:01.262Z,14.0
2024-04-09T01:14:01.217Z,14.2
2024-04-09T01:19:01.085Z,13.9
2024-04-09T01:24:01.134Z,13.6
2024-04-09T01:29:01.085Z,13.4
2024-04-09T01:34:01.431Z,13.5
2024-04-09T01:44:02.081Z,13.3
2024-04-09T01:49:06.154Z,13.4
2024-04-09T01:54:01.127Z,13.3
2024-04-09T01:59:01.090Z,13.0
2024-04-09T02:04:06.116Z,12.4
2024-04-09T02:09:01.152Z,11.8
2024-04-09T02:14:01.110Z,11.5
2024-04-09T02:19:01.381Z,11.3
2024-04-09T02:24:01.267Z,11.2
2024-04-09T02:29:06.200Z,10.9
2024-04-09T02:34:01.164Z,11.0
2024-04-09T02:39:01.228Z,11.9
2024-04-09T02:44:01.108Z,11.8
2024-04-09T02:49:01.155Z,11.2
2024-04-09T02:54:01.169Z,11.5
2024-04-09T02:59:01.113Z,11.8
2024-04-09T03:04:01.380Z,10.8
2024-04-09T03:09:01.117Z,10.0
2024-04-09T03:14:01.107Z,10.2
2024-04-09T03:19:02.250Z,9.5
2024-04-09T03:24:01.161Z,9.2
2024-04-09T03:29:01.086Z,8.7
2024-04-09T03:34:01.146Z,9.3
2024-04-09T03:39:01.304Z,9.1
2024-04-09T03:44:01.082Z,9.7
2024-04-09T03:49:01.226Z,8.9
2024-04-09T03:54:01.169Z,9.7
2024-04-09T03:59:01.116Z,9.6
2024-04-09T04:04:01.257Z,9.7
2024-04-09T04:09:01.180Z,9.0
2024-04-09T04:14:01.194Z,9.9
2024-04-09T04:19:01.091Z,9.3
2024-04-09T04:29:01.294Z,9.5
2024-04-09T04:39:01.115Z,9.0
2024-04-09T04:44:01.078Z,8.8
2024-04-09T04:49:01.235Z,8.7
2024-04-09T04:54:01.154Z,9.2
2024-04-09T04:59:01.107Z,9.9
2024-04-09T05:04:01.193Z,10.1
2024-04-09T05:09:01.211Z,10.5
2024-04-09T05:14:01.117Z,10.8
2024-04-09T05:19:01.422Z,10.4
2024-04-09T05:24:01.123Z,10.3
2024-04-09T05:29:01.122Z,10.5
2024-04-09T05:34:01.477Z,10.6
2024-04-09T05:49:01.211Z,10.2
2024-04-09T06:00:03.249Z,10.7
2024-04-09T06:10:01.132Z,10.8
2024-04-09T06:15:02.701Z,11.1
2024-04-09T06:20:01.184Z,10.4
2024-04-09T06:25:01.088Z,9.6
2024-04-09T06:30:07.140Z,9.8
2024-04-09T06:40:01.106Z,9.9
2024-04-09T06:45:02.073Z,11.2
2024-04-09T06:50:01.794Z,11.3
2024-04-09T06:55:01.112Z,11.6
2024-04-09T07:01:06.194Z,11.4
2024-04-09T07:06:02.119Z,11.1
2024-04-09T07:11:01.142Z,10.6
2024-04-09T07:16:07.117Z,11.1
2024-04-09T07:21:01.191Z,10.4
2024-04-09T07:36:01.218Z,10.0
2024-04-09T07:41:01.115Z,9.2
2024-04-09T07:51:01.140Z,9.3
2024-04-09T07:57:01.152Z,9.5
2024-04-09T08:02:01.710Z,10.0
2024-04-09T08:07:11.600Z,10.2
2024-04-09T08:12:01.310Z,9.9
2024-04-09T08:17:01.668Z,9.0
2024-04-09T08:27:02.003Z,8.5
2024-04-09T08:32:01.795Z,8.7
2024-04-09T08:37:02.469Z,8.3
2024-04-09T08:42:03.383Z,8.5
2024-04-09T08:47:02.812Z,8.4
2024-04-09T08:52:03.265Z,8.3
2024-04-09T08:57:01.147Z,7.8
2024-04-09T09:02:02.624Z,8.4
2024-04-09T09:07:01.095Z,9.2
2024-04-09T09:12:01.142Z,8.9
2024-04-09T09:17:01.131Z,9.4
2024-04-09T09:22:01.173Z,9.8
2024-04-09T09:27:01.121Z,9.7
2024-04-09T09:32:02.676Z,8.7
2024-04-09T09:37:01.231Z,8.6
2024-04-09T09:42:01.169Z,8.7
2024-04-09T09:47:01.119Z,8.8
2024-04-09T09:57:01.144Z,9.6
2024-04-09T10:02:03.326Z,10.3
2024-04-09T10:07:03.260Z,9.9
2024-04-09T10:12:01.118Z,9.8
2024-04-09T10:17:01.119Z,9.4
2024-04-09T10:22:01.648Z,9.6
2024-04-09T10:27:02.464Z,9.2
2024-04-09T10:37:01.166Z,9.4
2024-04-09T10:42:01.171Z,9.5
2024-04-09T10:47:01.124Z,9.1
2024-04-09T10:52:01.161Z,8.6
2024-04-09T11:02:01.079Z,8.3
2024-04-09T11:07:02.251Z,8.1
2024-04-09T11:17:01.809Z,8.4
2024-04-09T11:22:01.628Z,7.8
2024-04-09T11:27:01.172Z,7.9
2024-04-09T11:32:01.084Z,8.1
2024-04-09T11:37:02.304Z,8.0
2024-04-09T11:42:01.162Z,7.8
2024-04-09T11:47:01.823Z,8.2
2024-04-09T11:57:01.114Z,8.9
2024-04-09T12:02:01.164Z,8.6
2024-04-09T12:07:01.134Z,9.2
2024-04-09T12:12:01.121Z,9.4
2024-04-09T12:17:01.057Z,9.0
2024-04-09T12:22:01.667Z,8.6
2024-04-09T12:27:02.060Z,9.4
2024-04-09T12:32:01.848Z,9.2
2024-04-09T12:37:01.080Z,10.2
2024-04-09T12:42:01.111Z,10.6
2024-04-09T12:47:01.191Z,9.6
2024-04-09T12:52:01.096Z,8.6
2024-04-09T12:57:01.131Z,8.2
2024-04-09T13:02:01.204Z,6.6
2024-04-09T13:07:02.098Z,6.4
2024-04-09T13:12:02.177Z,6.8
2024-04-09T13:17:03.312Z,7.8
2024-04-09T13:22:01.078Z,7.9
2024-04-09T13:27:01.096Z,8.2
2024-04-09T13:32:02.898Z,8.1
2024-04-09T13:37:01.068Z,9.2
2024-04-09T13:42:01.067Z,9.5
2024-04-09T13:47:01.310Z,10.2
2024-04-09T13:52:01.117Z,10.5
2024-04-09T13:57:01.078Z,11.4
2024-04-09T14:02:01.097Z,10.8
2024-04-09T14:07:01.078Z,9.8
2024-04-09T14:12:01.158Z,9.2
2024-04-09T14:17:03.143Z,8.7
2024-04-09T14:22:01.097Z,8.1
2024-04-09T14:32:01.121Z,9.2
2024-04-09T14:37:01.657Z,8.6
2024-04-09T14:42:01.710Z,9.1
2024-04-09T14:47:02.157Z,9.6
2024-04-09T14:57:01.606Z,8.6
2024-04-09T15:02:01.095Z,8.8
2024-04-09T15:07:01.656Z,8.6
2024-04-09T15:12:01.087Z,6.8
2024-04-09T15:17:01.124Z,6.3
2024-04-09T15:22:01.074Z,6.4
2024-04-09T15:27:03.155Z,6.0
2024-04-09T15:32:01.223Z,5.9
2024-04-09T15:37:01.081Z,7.1
2024-04-09T15:47:02.279Z,6.6
2024-04-09T15:52:01.597Z,7.5
2024-04-09T15:57:02.003Z,7.6
2024-04-09T16:02:01.074Z,7.0
2024-04-09T16:07:01.072Z,7.1
2024-04-09T16:12:02.770Z,7.4
2024-04-09T16:17:02.460Z,6.2
2024-04-09T16:22:01.064Z,5.7
2024-04-09T16:27:01.065Z,5.6
2024-04-09T16:32:01.092Z,5.5
2024-04-09T16:37:01.269Z,5.4
2024-04-09T16:42:01.065Z,6.1
2024-04-09T16:47:02.621Z,6.2
2024-04-09T16:52:01.596Z,5.3
2024-04-09T16:57:01.667Z,4.5
2024-04-09T17:02:02.258Z,3.7
2024-04-09T17:07:01.087Z,2.7
2024-04-09T17:12:01.220Z,1.6
2024-04-09T17:17:01.278Z,1.8
2024-04-09T17:22:01.065Z,1.4
2024-04-09T17:27:01.701Z,1.2
2024-04-09T17:42:01.111Z,0.8
2024-04-09T17:47:02.553Z,0.7
2024-04-09T17:52:01.935Z,0.5
2024-04-09T17:57:01.462Z,0.3
2024-04-09T18:02:02.085Z,0.5
2024-04-09T18:07:01.075Z,0.4
2024-04-09T18:12:01.228Z,0.5
2024-04-09T18:22:01.085Z,0.3
2024-04-09T18:27:01.127Z,0.1
2024-04-09T18:32:01.800Z,0.2
2024-04-09T18:47:01.778Z,0.2
2024-04-09T18:57:01.052Z,0.1
2024-04-09T19:27:01.458Z,0.2
2024-04-09T19:42:01.090Z,0.2
2024-04-09T20:22:01.134Z,0.4
2024-04-09T20:37:01.605Z,0.4
2024-04-09T21:22:01.676Z,0.2
2024-04-09T21:32:01.130Z,0.5
2024-04-09T21:37:01.634Z,0.7
2024-04-09T21:42:01.086Z,1.1
2024-04-09T21:57:01.048Z,1.0
2024-04-09T22:02:01.104Z,0.8
2024-04-09T22:17:01.099Z,0.8
2024-04-09T22:22:01.114Z,0.6
2024-04-09T22:32:01.100Z,0.2
2024-04-09T22:42:01.080Z,0.6
2024-04-09T22:47:01.195Z,1.1
2024-04-09T22:52:01.063Z,1.3
2024-04-09T22:57:01.766Z,1.4
2024-04-09T23:02:01.136Z,1.3
2024-04-09T23:07:01.074Z,1.0
2024-04-09T23:12:01.278Z,0.8
2024-04-09T23:17:01.215Z,0.6
2024-04-09T23:22:01.093Z,0.5
2024-04-09T23:27:01.086Z,0.4
2024-04-09T23:42:04.125Z,0.3
2024-04-09T23:48:01.444Z,0.5
2024-04-09T23:53:01.149Z,0.6
2024-04-09T23:58:01.206Z,0.9
